Time;durP1;ratioP1;P1;durP2;ratioP2;P2;SDS_P1;SDS_P2;PMS_P1;PMS_P2;Temp;Humidity;BMP_temperature;BMP_pressure;BME280_temperature;BME280_humidity;BME280_pressure;Samples;Min_cycle;Max_cycle;Signal;HPM_P1;HPM_P2
2023/04/06 00:02:02;;;;;;;6.80;5.90;;;3.80;99.90;;;;;;7374341;19;20022;-59
2023/04/06 00:04:31;;;;;;;8.50;5.97;;;3.80;99.90;;;;;;7372016;19;20018;-59
2023/04/06 00:06:57;;;;;;;7.15;5.82;;;3.80;99.90;;;;;;7371820;19;20022;-59
2023/04/06 00:09:24;;;;;;;7.50;6.15;;;3.80;99.90;;;;;;7368422;19;20010;-62
2023/04/06 00:11:50;;;;;;;6.88;6.10;;;3.70;99.90;;;;;;7369230;19;20825;-62
2023/04/06 00:14:24;;;;;;;8.70;6.35;;;3.70;99.90;;;;;;7368072;19;20021;-59
2023/04/06 00:16:50;;;;;;;10.82;7.07;;;3.70;99.90;;;;;;7374039;19;20906;-59
2023/04/06 00:19:16;;;;;;;10.85;6.45;;;3.70;99.90;;;;;;7370404;19;20446;-60
2023/04/06 00:21:43;;;;;;;7.45;6.65;;;3.70;99.90;;;;;;7371969;19;20057;-59
2023/04/06 00:24:15;;;;;;;10.73;6.22;;;3.60;99.90;;;;;;7371244;19;20031;-62
2023/04/06 00:26:50;;;;;;;6.72;5.82;;;3.60;99.90;;;;;;7372395;19;20014;-58
2023/04/06 00:29:16;;;;;;;7.82;6.32;;;3.50;99.90;;;;;;7371253;19;20018;-60
2023/04/06 00:31:42;;;;;;;7.60;6.05;;;3.40;99.90;;;;;;7371704;19;20082;-62
2023/04/06 00:34:10;;;;;;;7.18;6.47;;;3.40;99.90;;;;;;7374706;19;20018;-60
2023/04/06 00:36:37;;;;;;;8.85;6.63;;;3.30;99.90;;;;;;7370266;19;20036;-62
2023/04/06 00:39:03;;;;;;;8.80;6.80;;;3.30;99.90;;;;;;7372666;19;20011;-60
2023/04/06 00:41:29;;;;;;;8.18;6.93;;;3.20;99.90;;;;;;7366749;19;20014;-60
2023/04/06 00:43:56;;;;;;;8.95;6.50;;;3.20;99.90;;;;;;7371703;19;20906;-63
2023/04/06 00:46:28;;;;;;;8.70;6.72;;;3.20;99.90;;;;;;7366539;19;20018;-63
2023/04/06 00:48:54;;;;;;;8.35;6.95;;;3.10;99.90;;;;;;7372715;19;20081;-62
2023/04/06 00:51:22;;;;;;;8.32;7.13;;;3.00;99.90;;;;;;7366385;19;20026;-63
2023/04/06 00:53:48;;;;;;;9.02;6.35;;;3.00;99.90;;;;;;7377209;19;20026;-61
2023/04/06 00:56:15;;;;;;;8.57;7.30;;;2.90;99.90;;;;;;7373496;19;20018;-60
2023/04/06 00:58:53;;;;;;;8.05;6.93;;;2.90;99.90;;;;;;7371342;19;20592;-60
2023/04/06 01:01:20;;;;;;;8.55;5.97;;;2.90;99.90;;;;;;7371000;19;20491;-59
2023/04/06 01:03:50;;;;;;;10.57;7.18;;;2.80;99.90;;;;;;7368185;19;20062;-63
2023/04/06 01:06:17;;;;;;;7.65;6.85;;;2.80;99.90;;;;;;7370142;19;20014;-62
2023/04/06 01:09:05;;;;;;;8.63;6.57;;;2.80;99.90;;;;;;7369951;19;20482;-62
2023/04/06 01:11:32;;;;;;;10.63;7.18;;;2.70;99.90;;;;;;7369951;19;20015;-62
2023/04/06 01:13:58;;;;;;;7.65;6.80;;;2.70;99.90;;;;;;7379275;19;20022;-62
2023/04/06 01:16:42;;;;;;;8.23;7.07;;;2.70;99.90;;;;;;7380531;19;20134;-63
2023/04/06 01:19:18;;;;;;;9.02;6.95;;;2.60;99.90;;;;;;7375462;19;20017;-60
2023/04/06 01:21:50;;;;;;;8.68;6.45;;;2.60;99.90;;;;;;7375751;19;20031;-60
2023/04/06 01:24:38;;;;;;;8.23;6.75;;;2.60;99.90;;;;;;7376376;19;20018;-62
2023/04/06 01:27:17;;;;;;;10.82;7.05;;;2.60;99.90;;;;;;7373425;19;20014;-63
2023/04/06 01:30:01;;;;;;;10.23;6.47;;;2.50;99.90;;;;;;7373735;19;20017;-62
2023/04/06 01:32:47;;;;;;;9.18;6.93;;;2.50;99.90;;;;;;7374060;19;20029;-62
2023/04/06 01:35:19;;;;;;;7.95;6.45;;;2.50;99.90;;;;;;7371943;19;20010;-62
2023/04/06 01:37:56;;;;;;;9.40;6.63;;;2.40;99.90;;;;;;7375442;19;20641;-63
2023/04/06 01:40:29;;;;;;;7.70;6.68;;;2.40;99.90;;;;;;7376020;19;20047;-62
2023/04/06 01:42:56;;;;;;;8.45;5.75;;;2.40;99.90;;;;;;7375480;19;20026;-62
2023/04/06 01:45:33;;;;;;;7.20;6.50;;;2.50;99.90;;;;;;7374750;19;20019;-62
2023/04/06 01:48:09;;;;;;;9.50;7.10;;;2.50;99.90;;;;;;7375265;19;20014;-62
2023/04/06 01:50:36;;;;;;;9.43;6.63;;;2.40;99.90;;;;;;7372202;19;20609;-62
2023/04/06 01:53:06;;;;;;;9.10;7.13;;;2.40;99.90;;;;;;7372757;19;20022;-62
2023/04/06 01:55:39;;;;;;;10.95;6.90;;;2.40;99.90;;;;;;7370702;19;20318;-60
2023/04/06 01:58:21;;;;;;;9.68;6.65;;;2.40;99.90;;;;;;7367037;19;20038;-62
2023/04/06 02:00:47;;;;;;;9.30;7.07;;;2.40;99.90;;;;;;7356121;19;20022;-62
2023/04/06 02:03:19;;;;;;;;;;;2.40;99.90;;;;;;7359586;19;20038;-63
2023/04/06 02:05:47;;;;;;;8.57;6.20;;;2.40;99.90;;;;;;7359069;19;19922;-63
2023/04/06 02:08:25;;;;;;;10.80;7.07;;;2.40;99.90;;;;;;7355596;19;20295;-62
2023/04/06 02:10:52;;;;;;;10.13;6.95;;;2.40;99.90;;;;;;7362104;19;20025;-62
2023/04/06 02:13:27;;;;;;;10.05;7.50;;;2.40;99.90;;;;;;7359893;19;20018;-62
2023/04/06 02:15:55;;;;;;;9.55;6.40;;;2.40;99.90;;;;;;7360425;19;20018;-63
2023/04/06 02:18:28;;;;;;;12.10;7.32;;;2.40;99.90;;;;;;7357040;19;20014;-61
2023/04/06 02:20:55;;;;;;;9.02;6.60;;;2.40;99.90;;;;;;7362492;19;20015;-62
2023/04/06 02:23:22;;;;;;;8.45;6.55;;;2.40;99.90;;;;;;7362198;19;20022;-63
2023/04/06 02:25:48;;;;;;;7.90;6.90;;;2.40;99.90;;;;;;7361796;19;20086;-63
2023/04/06 02:28:15;;;;;;;9.60;6.85;;;2.40;99.90;;;;;;7363107;19;21548;-63
2023/04/06 02:30:41;;;;;;;8.02;7.22;;;2.40;99.90;;;;;;7359160;19;20019;-63
2023/04/06 02:33:08;;;;;;;10.77;7.28;;;2.40;99.90;;;;;;7364229;19;20838;-60
2023/04/06 02:35:45;;;;;;;8.43;6.55;;;2.30;99.90;;;;;;7361342;19;20062;-60
2023/04/06 02:38:12;;;;;;;12.32;7.32;;;2.40;99.90;;;;;;7365844;19;20015;-61
2023/04/06 02:40:38;;;;;;;10.23;7.18;;;2.30;99.90;;;;;;7361202;19;20967;-60
2023/04/06 02:43:16;;;;;;;8.07;7.13;;;2.30;99.90;;;;;;7363119;19;21121;-60
2023/04/06 02:45:43;;;;;;;12.50;7.72;;;2.30;99.90;;;;;;7361824;19;20064;-60
2023/04/06 02:48:11;;;;;;;7.65;6.82;;;2.20;99.90;;;;;;7359673;19;20022;-59
2023/04/06 02:50:37;;;;;;;8.52;7.07;;;2.20;99.90;;;;;;7358382;19;20107;-62
2023/04/06 02:53:06;;;;;;;9.02;8.00;;;2.20;99.90;;;;;;7359223;19;20021;-62
2023/04/06 02:55:34;;;;;;;7.78;5.97;;;2.10;99.90;;;;;;7355754;19;20014;-62
2023/04/06 02:58:00;;;;;;;9.38;7.45;;;2.10;99.90;;;;;;7355898;19;20445;-62
2023/04/06 03:00:37;;;;;;;10.55;8.02;;;2.10;99.90;;;;;;7357819;19;20577;-60
2023/04/06 03:03:05;;;;;;;8.95;7.75;;;2.00;99.90;;;;;;7359963;19;20018;-62
2023/04/06 03:05:31;;;;;;;9.68;7.38;;;2.00;99.90;;;;;;7355726;19;20082;-62
2023/04/06 03:07:57;;;;;;;8.98;7.82;;;2.00;99.90;;;;;;7358790;19;20493;-63
2023/04/06 03:10:34;;;;;;;9.20;7.22;;;2.00;99.90;;;;;;7357148;19;20046;-61
2023/04/06 03:13:04;;;;;;;9.88;7.72;;;1.90;99.90;;;;;;7356223;19;20021;-61
2023/04/06 03:16:00;;;;;;;9.80;7.78;;;1.90;99.90;;;;;;7357045;19;20024;-62
2023/04/06 03:18:28;;;;;;;9.63;7.65;;;1.90;99.90;;;;;;7356091;19;20019;-62
2023/04/06 03:20:57;;;;;;;10.68;8.35;;;1.90;99.90;;;;;;7356289;19;20021;-62
2023/04/06 03:23:32;;;;;;;11.20;7.72;;;1.90;99.90;;;;;;7357016;19;20026;-61
2023/04/06 03:26:03;;;;;;;9.00;7.90;;;1.80;99.90;;;;;;7354426;19;20014;-62
2023/04/06 03:28:29;;;;;;;9.52;7.68;;;1.80;99.90;;;;;;7358296;19;20633;-62
2023/04/06 03:30:59;;;;;;;12.63;7.50;;;1.80;99.90;;;;;;7357734;19;20011;-62
2023/04/06 03:33:45;;;;;;;10.93;7.75;;;1.80;99.90;;;;;;7357499;19;20019;-62
2023/04/06 03:36:18;;;;;;;9.88;8.10;;;1.80;99.90;;;;;;7359329;19;21544;-62
2023/04/06 03:38:45;;;;;;;11.55;8.38;;;1.80;99.90;;;;;;7358578;19;20104;-62
2023/04/06 03:41:13;;;;;;;10.32;8.25;;;1.70;99.90;;;;;;7360417;19;20042;-62
2023/04/06 03:44:05;;;;;;;11.48;9.05;;;1.70;99.90;;;;;;7358477;19;20014;-62
2023/04/06 03:46:32;;;;;;;9.52;8.55;;;1.60;99.90;;;;;;7359373;19;20121;-63
2023/04/06 03:48:59;;;;;;;9.63;8.60;;;1.60;99.90;;;;;;7359261;19;20605;-60
2023/04/06 03:51:27;;;;;;;10.77;8.13;;;1.60;99.90;;;;;;7357857;19;20034;-60
2023/04/06 03:53:53;;;;;;;10.05;8.40;;;1.60;99.90;;;;;;7362539;19;20026;-62
2023/04/06 03:56:20;;;;;;;9.82;8.85;;;1.60;99.90;;;;;;7360977;19;20014;-63
2023/04/06 03:58:50;;;;;;;10.38;8.57;;;1.50;99.90;;;;;;7357906;19;20456;-62
2023/04/06 04:01:19;;;;;;;9.48;8.52;;;1.50;99.90;;;;;;7358407;19;20029;-62
2023/04/06 04:03:46;;;;;;;9.05;8.15;;;1.50;99.90;;;;;;7356543;19;20057;-62
2023/04/06 04:06:18;;;;;;;12.55;9.15;;;1.50;99.90;;;;;;7355797;19;20513;-62
2023/04/06 04:08:44;;;;;;;13.88;8.70;;;1.50;99.90;;;;;;7366510;19;20528;-62
2023/04/06 04:11:10;;;;;;;10.32;8.57;;;1.40;99.90;;;;;;7371720;19;20834;-62
2023/04/06 04:13:37;;;;;;;10.68;8.18;;;1.40;99.90;;;;;;7371142;19;20088;-62
2023/04/06 04:16:05;;;;;;;11.55;8.77;;;1.40;99.90;;;;;;7368333;19;20019;-61
2023/04/06 04:18:32;;;;;;;11.25;8.95;;;1.40;99.90;;;;;;7366165;19;20506;-62
2023/04/06 04:20:59;;;;;;;11.05;8.70;;;1.40;99.90;;;;;;7366217;19;20029;-62
2023/04/06 04:23:25;;;;;;;10.20;8.93;;;1.40;99.90;;;;;;7366411;19;20478;-62
2023/04/06 04:25:51;;;;;;;10.80;8.45;;;1.40;99.90;;;;;;7366329;19;20014;-60
2023/04/06 04:28:19;;;;;;;11.35;8.25;;;1.30;99.90;;;;;;7364300;19;20074;-60
2023/04/06 04:30:46;;;;;;;12.55;9.60;;;1.30;99.90;;;;;;7363458;19;20827;-60
2023/04/06 04:33:33;;;;;;;12.80;9.90;;;1.30;99.90;;;;;;7368515;19;20055;-60
2023/04/06 04:36:24;;;;;;;12.10;9.82;;;1.30;99.90;;;;;;7369018;19;20696;-58
2023/04/06 04:39:13;;;;;;;13.55;9.57;;;1.30;99.90;;;;;;7369172;19;20023;-59
2023/04/06 04:42:03;;;;;;;12.73;9.68;;;1.30;99.90;;;;;;7369315;19;20022;-60
2023/04/06 04:44:32;;;;;;;14.95;10.55;;;1.20;99.90;;;;;;7368777;19;20036;-60
2023/04/06 04:46:59;;;;;;;11.98;9.70;;;1.20;99.90;;;;;;7367264;19;20594;-61
2023/04/06 04:49:36;;;;;;;10.90;9.48;;;1.20;99.90;;;;;;7366385;19;20026;-60
2023/04/06 04:52:03;;;;;;;11.35;9.88;;;1.20;99.90;;;;;;7368949;19;20078;-63
2023/04/06 04:54:54;;;;;;;11.65;9.10;;;1.20;99.90;;;;;;7367740;19;20022;-62
2023/04/06 04:57:25;;;;;;;13.68;10.63;;;1.20;99.90;;;;;;7367662;19;20026;-60
2023/04/06 04:59:51;;;;;;;13.35;10.18;;;1.20;99.90;;;;;;7351457;19;20015;-60
2023/04/06 05:02:19;;;;;;;11.48;8.90;;;1.20;99.90;;;;;;7357004;19;20038;-60
2023/04/06 05:05:00;;;;;;;14.60;10.93;;;1.20;99.90;;;;;;7361019;19;20030;-64
2023/04/06 05:07:30;;;;;;;12.90;9.43;;;1.10;99.90;;;;;;7353929;19;20786;-62
2023/04/06 05:09:59;;;;;;;11.40;9.50;;;1.20;99.90;;;;;;7352743;19;20026;-60
2023/04/06 05:12:29;;;;;;;11.48;9.70;;;1.20;99.90;;;;;;7358432;19;20022;-62
2023/04/06 05:15:05;;;;;;;13.65;10.25;;;1.20;99.90;;;;;;7355051;19;20082;-62
2023/04/06 05:17:31;;;;;;;11.05;9.95;;;1.10;99.90;;;;;;7361530;19;20073;-62
2023/04/06 05:19:59;;;;;;;17.10;10.93;;;1.20;99.90;;;;;;7358009;19;20014;-62
2023/04/06 05:22:27;;;;;;;12.45;10.30;;;1.20;99.90;;;;;;7360220;19;21292;-62
2023/04/06 05:25:05;;;;;;;13.75;10.35;;;1.20;99.90;;;;;;7355370;19;20026;-62
2023/04/06 05:27:32;;;;;;;13.00;10.48;;;1.20;99.90;;;;;;7356657;19;20030;-62
2023/04/06 05:30:02;;;;;;;12.93;10.27;;;1.30;99.90;;;;;;7357150;19;20344;-62
2023/04/06 05:32:34;;;;;;;15.50;10.33;;;1.30;99.90;;;;;;7347617;19;20019;-60
2023/04/06 05:35:00;;;;;;;12.82;10.07;;;1.40;99.90;;;;;;7349538;19;20014;-59
2023/04/06 05:37:27;;;;;;;11.85;10.07;;;1.40;99.90;;;;;;7349499;19;20015;-62
2023/04/06 05:39:53;;;;;;;11.50;10.18;;;1.40;99.90;;;;;;7356162;19;20015;-62
2023/04/06 05:42:23;;;;;;;11.63;9.52;;;1.50;99.90;;;;;;7354407;19;20926;-62
2023/04/06 05:45:04;;;;;;;12.10;9.80;;;1.60;99.90;;;;;;7357211;19;20127;-62
2023/04/06 05:47:32;;;;;;;12.95;10.55;;;1.70;99.90;;;;;;7356788;19;20026;-62
2023/04/06 05:50:07;;;;;;;12.75;10.63;;;1.70;99.90;;;;;;7367896;19;20035;-60
2023/04/06 05:52:37;;;;;;;14.27;10.98;;;1.90;99.90;;;;;;7370903;19;20517;-60
2023/04/06 05:55:07;;;;;;;14.82;10.88;;;1.90;99.90;;;;;;7371303;19;20022;-60
2023/04/06 05:57:34;;;;;;;14.15;10.38;;;2.00;99.90;;;;;;7371331;19;20022;-60
2023/04/06 06:00:09;;;;;;;15.05;9.70;;;2.10;99.90;;;;;;7378972;19;21340;-60
2023/04/06 06:02:51;;;;;;;16.25;10.23;;;2.30;99.90;;;;;;7380015;19;20029;-60
2023/04/06 06:05:22;;;;;;;15.75;11.18;;;2.30;99.90;;;;;;7377655;19;20014;-60
2023/04/06 06:07:50;;;;;;;11.77;9.70;;;2.40;99.90;;;;;;7376643;19;20520;-60
2023/04/06 06:10:16;;;;;;;12.30;10.88;;;2.50;99.90;;;;;;7376935;19;20023;-60
2023/04/06 06:12:42;;;;;;;10.98;9.18;;;2.60;99.90;;;;;;7378444;19;20045;-60
2023/04/06 06:15:09;;;;;;;11.77;10.48;;;2.70;99.90;;;;;;7373103;19;20023;-59
2023/04/06 06:17:51;;;;;;;12.10;9.98;;;2.80;99.90;;;;;;7374093;19;20042;-60
2023/04/06 06:20:18;;;;;;;12.77;10.27;;;3.00;99.90;;;;;;7371116;19;20088;-62
2023/04/06 06:22:44;;;;;;;12.45;10.73;;;3.10;99.90;;;;;;7375528;19;20022;-62
2023/04/06 06:25:16;;;;;;;12.48;9.68;;;3.30;99.90;;;;;;7375585;19;20503;-63
2023/04/06 06:27:45;;;;;;;11.25;9.00;;;3.40;99.90;;;;;;7371595;19;20023;-60
2023/04/06 06:30:14;;;;;;;11.93;9.40;;;3.50;99.90;;;;;;7374448;19;20739;-62
2023/04/06 06:32:42;;;;;;;12.00;10.65;;;3.70;99.90;;;;;;7376304;19;20018;-62
2023/04/06 06:35:08;;;;;;;12.75;11.20;;;3.90;99.90;;;;;;7375966;19;20018;-62
2023/04/06 06:37:37;;;;;;;13.95;10.95;;;4.00;99.90;;;;;;7379348;19;20018;-63
2023/04/06 06:40:05;;;;;;;13.90;10.25;;;4.10;99.90;;;;;;7376963;19;20019;-62
2023/04/06 06:42:34;;;;;;;12.65;9.90;;;4.20;99.90;;;;;;7377112;19;20015;-63
2023/04/06 06:45:25;;;;;;;12.52;11.23;;;4.40;99.90;;;;;;7376872;19;20019;-63
2023/04/06 06:47:52;;;;;;;12.82;10.02;;;4.60;99.90;;;;;;7376749;19;20021;-62
2023/04/06 06:50:18;;;;;;;10.30;9.20;;;4.80;99.90;;;;;;7379608;19;20581;-62
2023/04/06 06:52:45;;;;;;;12.23;9.73;;;4.90;99.90;;;;;;7377634;19;20023;-62
2023/04/06 06:55:11;;;;;;;11.77;9.70;;;5.10;99.90;;;;;;7374773;19;20216;-64
2023/04/06 06:57:38;;;;;;;14.18;10.18;;;5.20;99.90;;;;;;7372376;19;20674;-62
2023/04/06 07:00:07;;;;;;;14.35;10.45;;;5.40;99.90;;;;;;7370275;19;20887;-62
2023/04/06 07:02:35;;;;;;;13.38;10.30;;;5.50;99.90;;;;;;7372646;19;20025;-63
2023/04/06 07:05:02;;;;;;;9.93;8.88;;;5.80;99.90;;;;;;7374414;19;20026;-62
2023/04/06 07:07:33;;;;;;;12.50;10.88;;;6.00;99.90;;;;;;7374685;19;20025;-62
2023/04/06 07:10:00;;;;;;;12.30;10.00;;;6.20;99.90;;;;;;7375877;19;20015;-62
2023/04/06 07:12:26;;;;;;;11.82;10.65;;;6.40;99.90;;;;;;7372783;19;20090;-62
2023/04/06 07:14:53;;;;;;;12.38;10.07;;;6.70;99.90;;;;;;7378743;19;20078;-61
2023/04/06 07:17:19;;;;;;;13.20;10.15;;;6.90;99.90;;;;;;7376779;19;20032;-62
2023/04/06 07:19:45;;;;;;;12.30;11.00;;;7.20;99.90;;;;;;7375247;19;20010;-60
2023/04/06 07:22:12;;;;;;;13.35;10.30;;;7.40;99.90;;;;;;7374965;19;20010;-60
2023/04/06 07:24:39;;;;;;;12.15;10.15;;;7.70;99.90;;;;;;7371896;19;20023;-61
2023/04/06 07:27:05;;;;;;;14.13;10.23;;;8.10;99.90;;;;;;7371662;19;20053;-61
2023/04/06 07:29:32;;;;;;;11.32;10.13;;;8.30;99.90;;;;;;7374793;19;20743;-61
2023/04/06 07:31:59;;;;;;;15.77;10.38;;;8.50;99.90;;;;;;7355904;19;21402;-60
2023/04/06 07:34:26;;;;;;;13.13;9.88;;;8.60;99.90;;;;;;7357327;19;20024;-60
2023/04/06 07:36:53;;;;;;;11.25;9.93;;;8.80;99.90;;;;;;7356777;19;20022;-60
2023/04/06 07:39:20;;;;;;;13.43;10.30;;;9.10;99.90;;;;;;7361572;19;20014;-60
2023/04/06 07:41:47;;;;;;;13.18;10.40;;;9.60;99.90;;;;;;7362782;19;20050;-60
2023/04/06 07:44:13;;;;;;;13.95;11.07;;;9.80;99.90;;;;;;7364014;19;20030;-60
2023/04/06 07:46:40;;;;;;;15.15;10.40;;;10.10;98.10;;;;;;7362002;19;20014;-63
2023/04/06 07:49:06;;;;;;;13.18;11.02;;;10.30;97.40;;;;;;7365009;19;20656;-63
2023/04/06 07:51:38;;;;;;;12.40;10.18;;;10.70;92.30;;;;;;7362888;19;20015;-63
2023/04/06 07:54:04;;;;;;;11.68;10.45;;;10.90;89.30;;;;;;7362118;19;20159;-63
2023/04/06 07:56:31;;;;;;;12.57;10.07;;;10.90;89.60;;;;;;7367289;19;20073;-60
2023/04/06 07:58:57;;;;;;;12.73;10.48;;;11.10;79.00;;;;;;7361718;19;20018;-60
2023/04/06 08:01:25;;;;;;;12.48;11.10;;;11.10;73.90;;;;;;7363686;19;20022;-60
2023/04/06 08:03:52;;;;;;;12.50;10.52;;;11.30;76.50;;;;;;7365988;19;20066;-60
2023/04/06 08:06:18;;;;;;;12.13;10.90;;;11.50;75.10;;;;;;7364082;19;20500;-63
2023/04/06 08:08:44;;;;;;;11.70;10.10;;;11.60;72.20;;;;;;7363332;19;20018;-61
2023/04/06 08:11:11;;;;;;;12.13;10.80;;;11.80;71.00;;;;;;7373415;19;20061;-60
2023/04/06 08:13:37;;;;;;;12.98;10.45;;;11.80;68.20;;;;;;7371870;19;20018;-61
2023/04/06 08:16:04;;;;;;;13.20;11.27;;;12.00;64.80;;;;;;7372354;19;20018;-60
2023/04/06 08:18:31;;;;;;;11.90;10.65;;;11.90;63.50;;;;;;7373683;19;20022;-62
2023/04/06 08:20:58;;;;;;;13.90;11.30;;;11.80;62.20;;;;;;7371259;19;20021;-60
2023/04/06 08:23:25;;;;;;;11.93;10.52;;;11.80;62.90;;;;;;7372972;19;20021;-60
2023/04/06 08:25:54;;;;;;;15.00;11.98;;;12.10;61.80;;;;;;7373024;19;20014;-63
2023/04/06 08:28:21;;;;;;;13.35;11.45;;;12.00;60.90;;;;;;7374567;19;20018;-61
2023/04/06 08:30:47;;;;;;;13.32;11.27;;;12.70;62.90;;;;;;7371890;19;20758;-60
2023/04/06 08:33:14;;;;;;;13.75;11.05;;;13.10;62.40;;;;;;7372346;19;20374;-60
2023/04/06 08:35:41;;;;;;;15.95;11.18;;;13.30;60.80;;;;;;7371585;19;20014;-61
2023/04/06 08:38:07;;;;;;;12.52;11.23;;;13.60;59.40;;;;;;7373698;19;20030;-60
2023/04/06 08:40:38;;;;;;;15.20;10.80;;;13.70;58.30;;;;;;7374626;19;20064;-60
2023/04/06 08:43:09;;;;;;;15.00;11.07;;;13.80;58.10;;;;;;7373251;19;20111;-60
2023/04/06 08:45:35;;;;;;;11.88;9.93;;;13.90;57.20;;;;;;7375654;19;20018;-63
2023/04/06 08:48:04;;;;;;;15.02;12.05;;;14.00;56.70;;;;;;7372682;19;20034;-60
2023/04/06 08:50:32;;;;;;;11.93;10.68;;;14.00;55.90;;;;;;7370691;19;20815;-60
2023/04/06 08:52:59;;;;;;;13.63;11.57;;;14.30;56.40;;;;;;7369819;19;20022;-60
2023/04/06 08:55:26;;;;;;;13.45;11.13;;;14.60;56.10;;;;;;7366982;19;20019;-63
2023/04/06 08:57:54;;;;;;;11.73;10.52;;;15.10;55.90;;;;;;7366497;19;20018;-63
2023/04/06 09:00:25;;;;;;;12.77;11.20;;;15.30;54.70;;;;;;7367535;19;20022;-60
2023/04/06 09:02:55;;;;;;;12.73;11.35;;;15.00;53.80;;;;;;7369314;19;20074;-59
2023/04/06 09:05:41;;;;;;;12.65;11.38;;;14.60;54.50;;;;;;7366970;19;20086;-61
2023/04/06 09:08:11;;;;;;;13.00;11.73;;;13.80;54.40;;;;;;7369698;19;20025;-61
2023/04/06 09:10:40;;;;;;;13.52;11.98;;;13.30;55.10;;;;;;7367716;19;20019;-61
2023/04/06 09:13:08;;;;;;;15.55;13.18;;;13.00;55.30;;;;;;7368385;19;20102;-59
2023/04/06 09:15:35;;;;;;;18.05;12.57;;;12.70;56.50;;;;;;7366632;19;20026;-60
2023/04/06 09:18:01;;;;;;;15.20;12.82;;;12.40;57.30;;;;;;7367155;19;21082;-59
2023/04/06 09:20:31;;;;;;;17.60;14.30;;;12.40;58.40;;;;;;7364285;19;20018;-60
2023/04/06 09:22:57;;;;;;;15.38;12.98;;;12.50;59.10;;;;;;7361772;19;20783;-60
2023/04/06 09:25:27;;;;;;;14.60;13.07;;;12.30;58.00;;;;;;7370542;19;20022;-59
2023/04/06 09:28:02;;;;;;;16.25;13.02;;;12.50;58.90;;;;;;7373524;19;20500;-60
2023/04/06 09:30:29;;;;;;;15.43;13.77;;;12.70;60.00;;;;;;7371640;19;20015;-61
2023/04/06 09:32:57;;;;;;;18.75;15.10;;;12.50;58.50;;;;;;7359878;19;20022;-62
2023/04/06 09:35:26;;;;;;;15.88;12.48;;;12.30;58.50;;;;;;7370045;19;20879;-62
2023/04/06 09:37:53;;;;;;;15.40;12.90;;;12.40;59.70;;;;;;7365632;19;20021;-62
2023/04/06 09:40:21;;;;;;;16.60;13.95;;;12.30;59.50;;;;;;7373542;19;20612;-62
2023/04/06 09:42:51;;;;;;;17.05;14.65;;;12.00;58.50;;;;;;7361180;19;20597;-60
2023/04/06 09:45:18;;;;;;;16.85;14.80;;;12.10;58.50;;;;;;7358069;19;20032;-62
2023/04/06 09:47:46;;;;;;;18.60;15.45;;;12.20;59.30;;;;;;7361216;19;20524;-62
2023/04/06 09:50:14;;;;;;;17.52;13.55;;;12.20;59.20;;;;;;7365864;19;20021;-61
2023/04/06 09:52:45;;;;;;;18.48;14.98;;;12.20;58.60;;;;;;7360597;19;20035;-60
2023/04/06 09:55:17;;;;;;;20.38;16.52;;;12.40;58.60;;;;;;7364093;19;20022;-63
2023/04/06 09:58:25;;;;;;;20.75;15.88;;;12.50;58.50;;;;;;7363435;19;20533;-60
2023/04/06 10:01:01;;;;;;;20.17;15.38;;;12.70;59.10;;;;;;7357155;19;20383;-60
2023/04/06 10:03:46;;;;;;;19.80;14.70;;;12.70;57.90;;;;;;7363783;19;20021;-60
2023/04/06 10:06:14;;;;;;;18.85;14.50;;;12.50;57.30;;;;;;7369237;19;20031;-59
2023/04/06 10:08:45;;;;;;;23.65;15.60;;;12.70;58.30;;;;;;7367823;19;20020;-59
2023/04/06 10:11:12;;;;;;;17.77;15.48;;;12.70;57.40;;;;;;7363004;19;20099;-60
2023/04/06 10:13:38;;;;;;;20.70;15.98;;;12.90;57.70;;;;;;7359043;19;20023;-62
2023/04/06 10:16:07;;;;;;;19.73;16.48;;;13.20;57.90;;;;;;7362332;19;20859;-62
2023/04/06 10:18:34;;;;;;;19.55;14.85;;;13.70;57.00;;;;;;7361841;19;20022;-62
2023/04/06 10:21:14;;;;;;;19.13;16.33;;;14.10;55.40;;;;;;7362246;19;20025;-60
2023/04/06 10:23:48;;;;;;;21.98;15.73;;;14.60;53.60;;;;;;7360986;19;21247;-60
2023/04/06 10:26:17;;;;;;;22.13;17.00;;;14.90;54.20;;;;;;7367964;19;20580;-61
2023/04/06 10:28:46;;;;;;;18.63;16.63;;;15.10;55.30;;;;;;7360625;19;20026;-62
2023/04/06 10:31:12;;;;;;;18.48;16.45;;;14.90;53.00;;;;;;7359371;19;20109;-62
2023/04/06 10:33:40;;;;;;;20.25;17.67;;;15.10;53.60;;;;;;7356907;19;20026;-60
2023/04/06 10:36:15;;;;;;;19.27;15.85;;;15.40;53.50;;;;;;7361304;19;20851;-60
2023/04/06 10:38:42;;;;;;;20.77;18.63;;;15.80;52.50;;;;;;7358463;19;20023;-64
2023/04/06 10:41:11;;;;;;;21.40;18.10;;;16.10;52.00;;;;;;7362037;19;20018;-60
2023/04/06 10:43:39;;;;;;;19.90;16.75;;;15.80;50.90;;;;;;7359929;19;20015;-60
2023/04/06 10:46:07;;;;;;;20.48;18.25;;;16.20;51.30;;;;;;7365054;19;20011;-62
2023/04/06 10:48:41;;;;;;;22.50;18.67;;;16.30;51.00;;;;;;7362157;19;20945;-62
2023/04/06 10:51:18;;;;;;;24.40;21.58;;;16.10;50.90;;;;;;7360856;19;20336;-60
2023/04/06 10:53:47;;;;;;;23.88;20.80;;;15.50;50.30;;;;;;7357774;19;20019;-62
2023/04/06 10:56:15;;;;;;;22.52;20.20;;;15.00;50.40;;;;;;7364012;19;20019;-61
2023/04/06 10:58:53;;;;;;;25.52;21.83;;;14.80;52.60;;;;;;7371682;19;20021;-60
2023/04/06 11:01:21;;;;;;;28.30;23.92;;;14.60;52.50;;;;;;7372403;19;20018;-60
2023/04/06 11:03:50;;;;;;;28.02;23.50;;;14.30;51.70;;;;;;7365977;19;20030;-63
2023/04/06 11:06:23;;;;;;;26.60;22.88;;;14.30;52.70;;;;;;7370709;19;20018;-64
2023/04/06 11:08:50;;;;;;;24.60;21.50;;;14.60;52.70;;;;;;7371746;19;20671;-63
2023/04/06 11:11:19;;;;;;;26.80;23.73;;;14.70;52.20;;;;;;7367285;19;20423;-63
2023/04/06 11:13:47;;;;;;;28.05;23.92;;;14.60;52.70;;;;;;7369379;19;20022;-63
2023/04/06 11:16:18;;;;;;;28.40;24.05;;;14.60;52.10;;;;;;7368358;19;20015;-66
2023/04/06 11:19:02;;;;;;;27.35;24.30;;;14.70;52.60;;;;;;7370418;19;20482;-64
2023/04/06 11:21:39;;;;;;;27.13;23.77;;;14.40;52.90;;;;;;7370613;19;20090;-61
2023/04/06 11:24:15;;;;;;;26.40;23.55;;;14.20;53.10;;;;;;7375691;19;20014;-63
2023/04/06 11:26:45;;;;;;;28.70;25.63;;;14.00;53.00;;;;;;7373015;19;20023;-64
2023/04/06 11:29:13;;;;;;;25.55;22.88;;;13.90;53.10;;;;;;7373396;19;20022;-62
2023/04/06 11:31:41;;;;;;;27.63;23.05;;;13.80;51.90;;;;;;7361918;19;20019;-63
2023/04/06 11:34:11;;;;;;;26.08;23.27;;;13.70;51.70;;;;;;7372003;19;20029;-63
2023/04/06 11:36:41;;;;;;;29.45;23.90;;;13.50;51.40;;;;;;7368649;19;20054;-63
2023/04/06 11:39:08;;;;;;;26.98;23.35;;;13.60;53.00;;;;;;7376230;19;20025;-61
2023/04/06 11:41:34;;;;;;;25.58;21.90;;;13.60;53.60;;;;;;7372907;19;20482;-61
2023/04/06 11:44:05;;;;;;;28.27;22.75;;;13.70;52.40;;;;;;7374459;19;20029;-62
2023/04/06 11:46:31;;;;;;;27.50;22.33;;;13.60;52.20;;;;;;7374454;19;20017;-61
2023/04/06 11:49:00;;;;;;;28.10;22.98;;;13.70;52.40;;;;;;7375515;19;20047;-62
2023/04/06 11:51:26;;;;;;;24.77;22.02;;;13.70;53.10;;;;;;7376468;19;20014;-62
2023/04/06 11:53:56;;;;;;;27.05;22.45;;;13.80;52.70;;;;;;7373832;19;20478;-64
2023/04/06 11:56:30;;;;;;;25.75;23.05;;;13.90;52.30;;;;;;7374102;19;20026;-64
2023/04/06 11:58:58;;;;;;;24.35;21.75;;;14.20;53.20;;;;;;7372323;19;20042;-64
2023/04/06 12:01:25;;;;;;;29.08;23.20;;;14.10;51.70;;;;;;7373049;19;20022;-64
2023/04/06 12:03:52;;;;;;;27.75;21.33;;;14.00;50.80;;;;;;7373423;19;20763;-64
2023/04/06 12:06:19;;;;;;;25.23;22.50;;;14.20;51.80;;;;;;7368711;19;20029;-65
2023/04/06 12:08:45;;;;;;;26.10;23.30;;;14.20;51.50;;;;;;7366686;19;20393;-64
2023/04/06 12:11:12;;;;;;;26.55;22.52;;;14.20;51.40;;;;;;7375488;19;20023;-63
2023/04/06 12:13:38;;;;;;;24.30;21.70;;;14.30;51.70;;;;;;7363522;19;20388;-64
2023/04/06 12:16:05;;;;;;;26.13;22.60;;;14.30;51.60;;;;;;7361124;19;20026;-61
2023/04/06 12:18:31;;;;;;;24.50;21.65;;;14.40;50.80;;;;;;7355723;19;20556;-64
2023/04/06 12:20:58;;;;;;;26.42;22.65;;;14.50;50.50;;;;;;7367738;19;20054;-63
2023/04/06 12:23:28;;;;;;;24.23;21.30;;;14.50;49.90;;;;;;7376084;19;20078;-62
2023/04/06 12:25:55;;;;;;;25.95;21.38;;;14.60;49.30;;;;;;7373387;19;20019;-63
2023/04/06 12:28:25;;;;;;;31.02;22.42;;;14.80;49.60;;;;;;7372813;19;20764;-63
2023/04/06 12:30:51;;;;;;;26.00;21.15;;;14.70;50.00;;;;;;7373798;19;20034;-60
2023/04/06 12:33:18;;;;;;;25.83;23.05;;;15.00;49.90;;;;;;7371461;19;20022;-60
2023/04/06 12:35:44;;;;;;;25.63;21.65;;;15.10;50.00;;;;;;7367650;19;20023;-60
2023/04/06 12:38:11;;;;;;;25.80;20.23;;;15.10;49.90;;;;;;7369081;19;20807;-60
2023/04/06 12:40:40;;;;;;;24.95;21.50;;;15.30;49.70;;;;;;7371653;19;20036;-63
2023/04/06 12:43:07;;;;;;;26.92;21.95;;;15.20;48.30;;;;;;7360259;19;20489;-63
2023/04/06 12:45:33;;;;;;;24.70;21.65;;;15.20;50.40;;;;;;7360414;19;20041;-62
2023/04/06 12:48:00;;;;;;;24.23;20.75;;;15.00;49.80;;;;;;7356820;19;20037;-61
2023/04/06 12:50:26;;;;;;;24.88;21.75;;;14.90;50.60;;;;;;7362418;19;20018;-60
2023/04/06 12:52:52;;;;;;;24.27;21.30;;;14.80;51.90;;;;;;7366196;19;20514;-59
2023/04/06 12:55:20;;;;;;;25.42;21.15;;;14.60;51.70;;;;;;7364556;19;20018;-60